sensor_id;sensor_type;location;lat;lon;timestamp;temperature;humidity
55008;DHT22;40902;45.116;21.296;2023-02-28T00:00:26;128.20;2252.80
55008;DHT22;40902;45.116;21.296;2023-02-28T00:02:52;128.10;2252.80
55008;DHT22;40902;45.116;21.296;2023-02-28T00:05:21;128.10;2252.80
55008;DHT22;40902;45.116;21.296;2023-02-28T00:07:48;128.10;2252.80
55008;DHT22;40902;45.116;21.296;2023-02-28T00:10:19;103.20;2227.20
55008;DHT22;40902;45.116;21.296;2023-02-28T00:12:47;103.30;2227.20
55008;DHT22;40902;45.116;21.296;2023-02-28T00:15:13;103.20;2227.20
55008;DHT22;40902;45.116;21.296;2023-02-28T00:17:39;103.30;2227.20
55008;DHT22;40902;45.116;21.296;2023-02-28T00:20:06;128.00;2252.80
55008;DHT22;40902;45.116;21.296;2023-02-28T00:22:34;103.30;2227.20
55008;DHT22;40902;45.116;21.296;2023-02-28T00:24:59;128.00;2252.80
55008;DHT22;40902;45.116;21.296;2023-02-28T00:27:25;128.10;2252.80
55008;DHT22;40902;45.116;21.296;2023-02-28T00:29:51;103.30;2227.20
55008;DHT22;40902;45.116;21.296;2023-02-28T00:32:17;128.00;2252.80
55008;DHT22;40902;45.116;21.296;2023-02-28T00:34:44;128.10;2252.80
55008;DHT22;40902;45.116;21.296;2023-02-28T00:37:11;128.00;2252.80
55008;DHT22;40902;45.116;21.296;2023-02-28T00:39:40;128.20;2252.80
55008;DHT22;40902;45.116;21.296;2023-02-28T00:42:07;128.00;2252.80
55008;DHT22;40902;45.116;21.296;2023-02-28T00:44:33;103.20;2227.20
55008;DHT22;40902;45.116;21.296;2023-02-28T00:47:00;103.20;2227.20
55008;DHT22;40902;45.116;21.296;2023-02-28T00:49:27;103.30;2227.20
55008;DHT22;40902;45.116;21.296;2023-02-28T00:51:53;128.00;2252.80
55008;DHT22;40902;45.116;21.296;2023-02-28T00:54:20;128.00;2252.80
55008;DHT22;40902;45.116;21.296;2023-02-28T00:56:45;128.30;2252.80
55008;DHT22;40902;45.116;21.296;2023-02-28T00:59:15;128.10;2252.80
55008;DHT22;40902;45.116;21.296;2023-02-28T01:01:41;103.20;2227.20
55008;DHT22;40902;45.116;21.296;2023-02-28T01:04:07;103.20;2227.20
55008;DHT22;40902;45.116;21.296;2023-02-28T01:06:33;103.10;2227.20
55008;DHT22;40902;45.116;21.296;2023-02-28T01:08:59;103.10;2227.20
55008;DHT22;40902;45.116;21.296;2023-02-28T01:11:25;103.10;2227.20
55008;DHT22;40902;45.116;21.296;2023-02-28T01:13:51;103.10;2227.20
55008;DHT22;40902;45.116;21.296;2023-02-28T01:16:17;103.00;2227.20
55008;DHT22;40902;45.116;21.296;2023-02-28T01:18:43;103.10;2227.20
55008;DHT22;40902;45.116;21.296;2023-02-28T01:21:13;103.10;2227.20
55008;DHT22;40902;45.116;21.296;2023-02-28T01:23:40;103.10;2227.20
55008;DHT22;40902;45.116;21.296;2023-02-28T01:26:14;103.10;2227.20
55008;DHT22;40902;45.116;21.296;2023-02-28T01:28:40;103.10;2227.20
55008;DHT22;40902;45.116;21.296;2023-02-28T01:31:06;103.10;2227.20
55008;DHT22;40902;45.116;21.296;2023-02-28T01:33:32;103.10;2227.20
55008;DHT22;40902;45.116;21.296;2023-02-28T01:36:22;103.10;2227.20
55008;DHT22;40902;45.116;21.296;2023-02-28T01:38:49;103.00;2227.20
55008;DHT22;40902;45.116;21.296;2023-02-28T01:41:27;103.00;2227.20
55008;DHT22;40902;45.116;21.296;2023-02-28T01:43:59;103.00;2227.20
55008;DHT22;40902;45.116;21.296;2023-02-28T01:46:29;103.10;2227.20
55008;DHT22;40902;45.116;21.296;2023-02-28T01:51:34;103.00;2227.20
55008;DHT22;40902;45.116;21.296;2023-02-28T01:54:07;103.00;2227.20
55008;DHT22;40902;45.116;21.296;2023-02-28T01:56:49;102.90;2227.20
55008;DHT22;40902;45.116;21.296;2023-02-28T01:59:29;102.90;2227.20
55008;DHT22;40902;45.116;21.296;2023-02-28T02:01:58;102.90;2227.20
55008;DHT22;40902;45.116;21.296;2023-02-28T02:04:27;103.00;2227.20
55008;DHT22;40902;45.116;21.296;2023-02-28T02:06:58;103.00;2227.20
55008;DHT22;40902;45.116;21.296;2023-02-28T02:09:24;102.90;2227.20
55008;DHT22;40902;45.116;21.296;2023-02-28T02:11:50;102.90;2227.20
55008;DHT22;40902;45.116;21.296;2023-02-28T02:17:14;102.80;2227.20
55008;DHT22;40902;45.116;21.296;2023-02-28T02:20:22;102.70;2227.20
55008;DHT22;40902;45.116;21.296;2023-02-28T02:23:17;102.80;2227.20
55008;DHT22;40902;45.116;21.296;2023-02-28T02:36:43;102.80;2227.20
55008;DHT22;40902;45.116;21.296;2023-02-28T02:39:23;102.80;2227.20
55008;DHT22;40902;45.116;21.296;2023-02-28T02:41:54;102.80;2227.20
55008;DHT22;40902;45.116;21.296;2023-02-28T02:44:39;102.80;2227.20
55008;DHT22;40902;45.116;21.296;2023-02-28T02:47:15;102.70;2227.20
55008;DHT22;40902;45.116;21.296;2023-02-28T02:49:49;102.80;2227.20
55008;DHT22;40902;45.116;21.296;2023-02-28T02:52:20;102.60;2227.20
55008;DHT22;40902;45.116;21.296;2023-02-28T02:54:48;102.70;2227.20
55008;DHT22;40902;45.116;21.296;2023-02-28T02:57:29;102.60;2227.20
55008;DHT22;40902;45.116;21.296;2023-02-28T02:59:56;102.70;2227.20
55008;DHT22;40902;45.116;21.296;2023-02-28T03:02:22;102.60;2227.20
55008;DHT22;40902;45.116;21.296;2023-02-28T03:04:52;102.70;2227.20
55008;DHT22;40902;45.116;21.296;2023-02-28T03:07:19;102.80;2227.20
55008;DHT22;40902;45.116;21.296;2023-02-28T03:09:52;102.60;2227.20
55008;DHT22;40902;45.116;21.296;2023-02-28T03:12:19;102.60;2227.20
55008;DHT22;40902;45.116;21.296;2023-02-28T03:15:11;102.60;2227.20
55008;DHT22;40902;45.116;21.296;2023-02-28T03:18:03;102.60;2227.20
55008;DHT22;40902;45.116;21.296;2023-02-28T03:30:52;102.50;2227.20
55008;DHT22;40902;45.116;21.296;2023-02-28T03:35:55;102.50;2227.20
55008;DHT22;40902;45.116;21.296;2023-02-28T03:38:28;102.50;2227.20
55008;DHT22;40902;45.116;21.296;2023-02-28T03:41:25;102.40;2227.20
55008;DHT22;40902;45.116;21.296;2023-02-28T03:43:58;77.70;2227.20
55008;DHT22;40902;45.116;21.296;2023-02-28T03:46:28;102.40;2227.20
55008;DHT22;40902;45.116;21.296;2023-02-28T03:49:48;102.40;2227.20
55008;DHT22;40902;45.116;21.296;2023-02-28T03:51:50;102.40;2227.20
55008;DHT22;40902;45.116;21.296;2023-02-28T03:54:21;102.40;2227.20
55008;DHT22;40902;45.116;21.296;2023-02-28T03:57:02;102.40;2227.20
55008;DHT22;40902;45.116;21.296;2023-02-28T03:59:37;102.40;2227.20
55008;DHT22;40902;45.116;21.296;2023-02-28T04:02:03;102.40;2227.20
55008;DHT22;40902;45.116;21.296;2023-02-28T04:04:29;102.40;2227.20
55008;DHT22;40902;45.116;21.296;2023-02-28T04:07:06;102.40;2227.20
55008;DHT22;40902;45.116;21.296;2023-02-28T04:09:33;102.40;2227.20
55008;DHT22;40902;45.116;21.296;2023-02-28T04:11:59;102.40;2227.20
55008;DHT22;40902;45.116;21.296;2023-02-28T04:14:24;102.40;2227.20
55008;DHT22;40902;45.116;21.296;2023-02-28T04:16:50;102.40;2227.20
55008;DHT22;40902;45.116;21.296;2023-02-28T04:19:19;102.40;2227.20
55008;DHT22;40902;45.116;21.296;2023-02-28T04:21:47;102.50;2227.20
55008;DHT22;40902;45.116;21.296;2023-02-28T04:24:15;102.60;2227.20
55008;DHT22;40902;45.116;21.296;2023-02-28T04:26:44;102.50;2227.20
55008;DHT22;40902;45.116;21.296;2023-02-28T04:29:12;102.60;2227.20
55008;DHT22;40902;45.116;21.296;2023-02-28T04:31:38;102.60;2227.20
55008;DHT22;40902;45.116;21.296;2023-02-28T04:34:04;102.60;2227.20
55008;DHT22;40902;45.116;21.296;2023-02-28T04:36:30;102.60;2227.20
55008;DHT22;40902;45.116;21.296;2023-02-28T04:38:56;102.60;2227.20
55008;DHT22;40902;45.116;21.296;2023-02-28T04:41:22;102.60;2227.20
55008;DHT22;40902;45.116;21.296;2023-02-28T04:43:48;102.60;2227.20
55008;DHT22;40902;45.116;21.296;2023-02-28T04:46:14;102.60;2227.20
55008;DHT22;40902;45.116;21.296;2023-02-28T04:48:41;102.70;2227.20
55008;DHT22;40902;45.116;21.296;2023-02-28T04:51:08;102.70;2227.20
55008;DHT22;40902;45.116;21.296;2023-02-28T04:53:35;102.60;2227.20
55008;DHT22;40902;45.116;21.296;2023-02-28T04:56:01;102.70;2227.20
55008;DHT22;40902;45.116;21.296;2023-02-28T04:58:27;102.70;2227.20
55008;DHT22;40902;45.116;21.296;2023-02-28T05:00:54;102.60;2227.20
55008;DHT22;40902;45.116;21.296;2023-02-28T05:03:26;102.60;2227.20
55008;DHT22;40902;45.116;21.296;2023-02-28T05:05:51;102.60;2227.20
55008;DHT22;40902;45.116;21.296;2023-02-28T05:08:17;102.60;2227.20
55008;DHT22;40902;45.116;21.296;2023-02-28T05:10:43;102.70;2227.20
55008;DHT22;40902;45.116;21.296;2023-02-28T05:13:12;102.70;2227.20
55008;DHT22;40902;45.116;21.296;2023-02-28T05:15:38;102.70;2227.20
55008;DHT22;40902;45.116;21.296;2023-02-28T05:18:03;102.70;2227.20
55008;DHT22;40902;45.116;21.296;2023-02-28T05:20:29;102.80;2227.20
55008;DHT22;40902;45.116;21.296;2023-02-28T05:22:56;102.80;2227.20
55008;DHT22;40902;45.116;21.296;2023-02-28T05:25:23;102.80;2227.20
55008;DHT22;40902;45.116;21.296;2023-02-28T05:27:49;102.80;2227.20
55008;DHT22;40902;45.116;21.296;2023-02-28T05:30:15;102.90;2227.20
55008;DHT22;40902;45.116;21.296;2023-02-28T05:32:41;103.00;2227.20
55008;DHT22;40902;45.116;21.296;2023-02-28T05:35:10;103.10;2227.20
55008;DHT22;40902;45.116;21.296;2023-02-28T05:37:37;103.20;2227.20
55008;DHT22;40902;45.116;21.296;2023-02-28T05:40:04;128.00;2252.80
55008;DHT22;40902;45.116;21.296;2023-02-28T05:42:37;128.10;2252.80
55008;DHT22;40902;45.116;21.296;2023-02-28T05:45:04;128.50;2252.80
55008;DHT22;40902;45.116;21.296;2023-02-28T05:47:31;128.40;2252.80
55008;DHT22;40902;45.116;21.296;2023-02-28T05:49:56;128.40;2252.80
55008;DHT22;40902;45.116;21.296;2023-02-28T05:52:22;128.50;2252.80
55008;DHT22;40902;45.116;21.296;2023-02-28T05:54:48;128.50;2252.80
55008;DHT22;40902;45.116;21.296;2023-02-28T05:57:14;128.50;2252.80
55008;DHT22;40902;45.116;21.296;2023-02-28T05:59:40;128.50;2252.80
55008;DHT22;40902;45.116;21.296;2023-02-28T06:02:10;128.60;2252.80
55008;DHT22;40902;45.116;21.296;2023-02-28T06:04:37;128.70;2252.80
55008;DHT22;40902;45.116;21.296;2023-02-28T06:07:03;128.60;2252.80
55008;DHT22;40902;45.116;21.296;2023-02-28T06:09:28;128.50;2252.80
55008;DHT22;40902;45.116;21.296;2023-02-28T06:11:56;128.40;2252.80
55008;DHT22;40902;45.116;21.296;2023-02-28T06:14:22;128.40;2252.80
55008;DHT22;40902;45.116;21.296;2023-02-28T06:16:48;128.30;2252.80
55008;DHT22;40902;45.116;21.296;2023-02-28T06:19:14;128.50;2252.80
55008;DHT22;40902;45.116;21.296;2023-02-28T06:21:40;128.50;2252.80
55008;DHT22;40902;45.116;21.296;2023-02-28T06:24:06;128.50;2252.80
55008;DHT22;40902;45.116;21.296;2023-02-28T06:26:33;128.40;2252.80
55008;DHT22;40902;45.116;21.296;2023-02-28T06:28:58;128.50;2252.80
55008;DHT22;40902;45.116;21.296;2023-02-28T06:31:26;128.50;2252.80
55008;DHT22;40902;45.116;21.296;2023-02-28T06:33:51;128.50;2252.80
55008;DHT22;40902;45.116;21.296;2023-02-28T06:36:17;128.50;2252.80
55008;DHT22;40902;45.116;21.296;2023-02-28T06:38:43;128.70;2252.80
55008;DHT22;40902;45.116;21.296;2023-02-28T06:41:10;128.70;2252.80
55008;DHT22;40902;45.116;21.296;2023-02-28T06:43:39;128.80;2252.80
55008;DHT22;40902;45.116;21.296;2023-02-28T06:46:07;128.80;2252.80
55008;DHT22;40902;45.116;21.296;2023-02-28T06:48:34;128.90;2252.80
55008;DHT22;40902;45.116;21.296;2023-02-28T06:51:08;128.70;2252.80
55008;DHT22;40902;45.116;21.296;2023-02-28T06:53:35;128.80;2252.80
55008;DHT22;40902;45.116;21.296;2023-02-28T06:56:09;128.70;2252.80
55008;DHT22;40902;45.116;21.296;2023-02-28T06:58:35;128.80;2252.80
55008;DHT22;40902;45.116;21.296;2023-02-28T07:01:02;128.60;2252.80
55008;DHT22;40902;45.116;21.296;2023-02-28T07:03:27;128.70;2252.80
55008;DHT22;40902;45.116;21.296;2023-02-28T07:05:53;128.70;2252.80
55008;DHT22;40902;45.116;21.296;2023-02-28T07:08:22;128.90;2252.80
55008;DHT22;40902;45.116;21.296;2023-02-28T07:10:52;128.90;2252.80
55008;DHT22;40902;45.116;21.296;2023-02-28T07:13:17;153.60;2252.80
55008;DHT22;40902;45.116;21.296;2023-02-28T07:15:43;153.60;2252.80
55008;DHT22;40902;45.116;21.296;2023-02-28T07:18:09;153.60;2252.80
55008;DHT22;40902;45.116;21.296;2023-02-28T07:20:35;153.60;2252.80
55008;DHT22;40902;45.116;21.296;2023-02-28T07:23:00;153.60;2252.80
55008;DHT22;40902;45.116;21.296;2023-02-28T07:25:28;128.90;2252.80
55008;DHT22;40902;45.116;21.296;2023-02-28T07:27:55;128.90;2252.80
55008;DHT22;40902;45.116;21.296;2023-02-28T07:30:21;153.60;2252.80
55008;DHT22;40902;45.116;21.296;2023-02-28T07:32:47;128.90;2252.80
55008;DHT22;40902;45.116;21.296;2023-02-28T07:35:13;153.60;2252.80
55008;DHT22;40902;45.116;21.296;2023-02-28T07:37:41;153.70;2252.80
55008;DHT22;40902;45.116;21.296;2023-02-28T07:40:09;153.80;2252.80
55008;DHT22;40902;45.116;21.296;2023-02-28T07:42:37;153.70;2252.80
55008;DHT22;40902;45.116;21.296;2023-02-28T07:45:04;153.80;2252.80
55008;DHT22;40902;45.116;21.296;2023-02-28T07:47:30;153.90;2252.80
55008;DHT22;40902;45.116;21.296;2023-02-28T07:49:57;154.00;2252.80
55008;DHT22;40902;45.116;21.296;2023-02-28T07:52:23;154.00;2252.80
55008;DHT22;40902;45.116;21.296;2023-02-28T07:54:50;154.00;2252.80
55008;DHT22;40902;45.116;21.296;2023-02-28T07:57:15;154.00;2252.80
55008;DHT22;40902;45.116;21.296;2023-02-28T07:59:41;154.00;2252.80
55008;DHT22;40902;45.116;21.296;2023-02-28T08:02:14;154.00;2252.80
55008;DHT22;40902;45.116;21.296;2023-02-28T08:04:40;154.00;2252.80
55008;DHT22;40902;45.116;21.296;2023-02-28T08:07:06;154.00;2252.80
55008;DHT22;40902;45.116;21.296;2023-02-28T08:09:32;154.10;2252.80
55008;DHT22;40902;45.116;21.296;2023-02-28T08:11:58;154.10;2252.80
55008;DHT22;40902;45.116;21.296;2023-02-28T08:14:24;154.00;2252.80
55008;DHT22;40902;45.116;21.296;2023-02-28T08:16:49;154.00;2252.80
55008;DHT22;40902;45.116;21.296;2023-02-28T08:19:15;154.10;2252.80
55008;DHT22;40902;45.116;21.296;2023-02-28T08:21:41;154.10;2252.80
55008;DHT22;40902;45.116;21.296;2023-02-28T08:24:07;154.10;2252.80
55008;DHT22;40902;45.116;21.296;2023-02-28T08:26:32;154.10;2252.80
55008;DHT22;40902;45.116;21.296;2023-02-28T08:28:58;154.30;2252.80
55008;DHT22;40902;45.116;21.296;2023-02-28T08:31:24;154.10;2252.80
55008;DHT22;40902;45.116;21.296;2023-02-28T08:33:50;154.20;2252.80
55008;DHT22;40902;45.116;21.296;2023-02-28T08:36:18;154.10;2252.80
55008;DHT22;40902;45.116;21.296;2023-02-28T08:38:43;154.30;2252.80
55008;DHT22;40902;45.116;21.296;2023-02-28T08:41:11;154.20;2252.80
55008;DHT22;40902;45.116;21.296;2023-02-28T08:43:37;154.30;2252.80
55008;DHT22;40902;45.116;21.296;2023-02-28T08:46:04;154.40;2252.80
55008;DHT22;40902;45.116;21.296;2023-02-28T08:48:32;154.40;2252.80
55008;DHT22;40902;45.116;21.296;2023-02-28T08:51:06;154.50;2252.80
55008;DHT22;40902;45.116;21.296;2023-02-28T08:53:35;154.50;2252.80
55008;DHT22;40902;45.116;21.296;2023-02-28T08:56:07;179.20;2252.80
55008;DHT22;40902;45.116;21.296;2023-02-28T08:58:34;179.20;2252.80
55008;DHT22;40902;45.116;21.296;2023-02-28T09:01:06;154.40;2252.80
55008;DHT22;40902;45.116;21.296;2023-02-28T09:03:32;154.50;2252.80
55008;DHT22;40902;45.116;21.296;2023-02-28T09:06:00;154.50;2252.80
55008;DHT22;40902;45.116;21.296;2023-02-28T09:08:27;179.30;2252.80
55008;DHT22;40902;45.116;21.296;2023-02-28T09:10:53;154.30;2252.80
55008;DHT22;40902;45.116;21.296;2023-02-28T09:13:22;154.50;2252.80
55008;DHT22;40902;45.116;21.296;2023-02-28T09:15:48;154.50;2252.80
55008;DHT22;40902;45.116;21.296;2023-02-28T09:18:13;179.20;2252.80
55008;DHT22;40902;45.116;21.296;2023-02-28T09:20:40;154.50;2252.80
55008;DHT22;40902;45.116;21.296;2023-02-28T09:23:08;154.50;2252.80
55008;DHT22;40902;45.116;21.296;2023-02-28T09:25:34;154.40;2252.80
55008;DHT22;40902;45.116;21.296;2023-02-28T09:28:00;154.50;2252.80
55008;DHT22;40902;45.116;21.296;2023-02-28T09:30:26;154.50;2252.80
55008;DHT22;40902;45.116;21.296;2023-02-28T09:32:51;154.50;2252.80
55008;DHT22;40902;45.116;21.296;2023-02-28T09:35:19;154.40;2252.80
55008;DHT22;40902;45.116;21.296;2023-02-28T09:37:47;154.50;2252.80
55008;DHT22;40902;45.116;21.296;2023-02-28T09:40:12;154.50;2252.80
55008;DHT22;40902;45.116;21.296;2023-02-28T09:42:40;179.30;2252.80
55008;DHT22;40902;45.116;21.296;2023-02-28T09:45:30;179.30;2252.80
55008;DHT22;40902;45.116;21.296;2023-02-28T09:48:01;179.20;2252.80
55008;DHT22;40902;45.116;21.296;2023-02-28T09:50:34;154.50;2252.80
55008;DHT22;40902;45.116;21.296;2023-02-28T09:53:03;179.20;2252.80
55008;DHT22;40902;45.116;21.296;2023-02-28T09:55:42;179.30;2252.80
55008;DHT22;40902;45.116;21.296;2023-02-28T10:01:12;179.50;2252.80
55008;DHT22;40902;45.116;21.296;2023-02-28T10:04:00;179.60;2252.80
55008;DHT22;40902;45.116;21.296;2023-02-28T10:06:34;179.80;2252.80
55008;DHT22;40902;45.116;21.296;2023-02-28T10:09:15;179.60;2252.80
55008;DHT22;40902;45.116;21.296;2023-02-28T10:11:44;179.70;2252.80
55008;DHT22;40902;45.116;21.296;2023-02-28T10:14:19;179.60;2252.80
55008;DHT22;40902;45.116;21.296;2023-02-28T10:19:22;179.60;2252.80
55008;DHT22;40902;45.116;21.296;2023-02-28T10:21:58;179.70;2252.80
55008;DHT22;40902;45.116;21.296;2023-02-28T10:24:39;179.80;2252.80
55008;DHT22;40902;45.116;21.296;2023-02-28T10:27:19;179.90;2252.80
55008;DHT22;40902;45.116;21.296;2023-02-28T10:29:47;179.90;2252.80
55008;DHT22;40902;45.116;21.296;2023-02-28T10:32:17;204.80;2252.80
55008;DHT22;40902;45.116;21.296;2023-02-28T10:34:43;180.00;2252.80
55008;DHT22;40902;45.116;21.296;2023-02-28T10:37:11;180.00;2252.80
55008;DHT22;40902;45.116;21.296;2023-02-28T10:39:43;180.00;2252.80
55008;DHT22;40902;45.116;21.296;2023-02-28T10:45:16;179.90;2252.80
55008;DHT22;40902;45.116;21.296;2023-02-28T10:58:24;179.90;2252.80
55008;DHT22;40902;45.116;21.296;2023-02-28T11:00:51;179.70;2252.80
55008;DHT22;40902;45.116;21.296;2023-02-28T11:03:32;179.50;2252.80
55008;DHT22;40902;45.116;21.296;2023-02-28T11:06:08;179.60;2252.80
55008;DHT22;40902;45.116;21.296;2023-02-28T11:08:54;179.80;2252.80
55008;DHT22;40902;45.116;21.296;2023-02-28T11:11:23;180.00;2252.80
55008;DHT22;40902;45.116;21.296;2023-02-28T11:13:57;180.10;2252.80
55008;DHT22;40902;45.116;21.296;2023-02-28T11:16:35;179.90;2252.80
55008;DHT22;40902;45.116;21.296;2023-02-28T11:19:03;179.90;2252.80
55008;DHT22;40902;45.116;21.296;2023-02-28T11:21:35;179.90;2252.80
55008;DHT22;40902;45.116;21.296;2023-02-28T11:24:42;179.90;2252.80
55008;DHT22;40902;45.116;21.296;2023-02-28T11:30:00;179.90;2252.80
55008;DHT22;40902;45.116;21.296;2023-02-28T11:32:27;179.70;2252.80
55008;DHT22;40902;45.116;21.296;2023-02-28T11:37:35;179.50;2252.80
55008;DHT22;40902;45.116;21.296;2023-02-28T11:40:02;179.40;2252.80
55008;DHT22;40902;45.116;21.296;2023-02-28T11:42:44;179.50;2252.80
55008;DHT22;40902;45.116;21.296;2023-02-28T11:48:20;179.60;2252.80
55008;DHT22;40902;45.116;21.296;2023-02-28T11:56:31;179.50;2252.80
55008;DHT22;40902;45.116;21.296;2023-02-28T12:04:51;179.70;2252.80
55008;DHT22;40902;45.116;21.296;2023-02-28T12:10:17;179.80;2252.80
55008;DHT22;40902;45.116;21.296;2023-02-28T12:26:42;204.80;2252.80
55008;DHT22;40902;45.116;21.296;2023-02-28T12:29:26;204.80;2252.80
55008;DHT22;40902;45.116;21.296;2023-02-28T12:32:14;180.10;2252.80
55008;DHT22;40902;45.116;21.296;2023-02-28T12:34:46;180.10;2252.80
55008;DHT22;40902;45.116;21.296;2023-02-28T12:37:17;180.10;2252.80
55008;DHT22;40902;45.116;21.296;2023-02-28T12:39:48;180.10;2252.80
55008;DHT22;40902;45.116;21.296;2023-02-28T12:42:29;204.90;2252.80
55008;DHT22;40902;45.116;21.296;2023-02-28T12:45:01;205.00;2252.80
55008;DHT22;40902;45.116;21.296;2023-02-28T12:47:27;205.10;2252.80
55008;DHT22;40902;45.116;21.296;2023-02-28T12:49:59;205.10;2252.80
55008;DHT22;40902;45.116;21.296;2023-02-28T12:52:41;205.20;2252.80
55008;DHT22;40902;45.116;21.296;2023-02-28T12:55:22;205.20;2252.80
55008;DHT22;40902;45.116;21.296;2023-02-28T13:07:16;204.80;2252.80
55008;DHT22;40902;45.116;21.296;2023-02-28T13:09:29;204.80;2252.80
55008;DHT22;40902;45.116;21.296;2023-02-28T13:11:56;204.80;2252.80
55008;DHT22;40902;45.116;21.296;2023-02-28T13:14:30;180.10;2252.80
55008;DHT22;40902;45.116;21.296;2023-02-28T13:19:40;180.10;2252.80
55008;DHT22;40902;45.116;21.296;2023-02-28T13:22:18;204.80;2252.80
55008;DHT22;40902;45.116;21.296;2023-02-28T13:24:45;204.80;2252.80
55008;DHT22;40902;45.116;21.296;2023-02-28T13:29:50;180.00;2252.80
55008;DHT22;40902;45.116;21.296;2023-02-28T13:32:28;179.90;2252.80
55008;DHT22;40902;45.116;21.296;2023-02-28T13:39:59;179.90;2252.80
55008;DHT22;40902;45.116;21.296;2023-02-28T13:56:00;179.60;2252.80
55008;DHT22;40902;45.116;21.296;2023-02-28T13:58:43;179.70;2252.80
55008;DHT22;40902;45.116;21.296;2023-02-28T14:01:38;179.70;2252.80
55008;DHT22;40902;45.116;21.296;2023-02-28T14:06:50;179.80;2252.80
55008;DHT22;40902;45.116;21.296;2023-02-28T14:09:39;179.70;2252.80
55008;DHT22;40902;45.116;21.296;2023-02-28T14:18:02;179.70;2252.80
55008;DHT22;40902;45.116;21.296;2023-02-28T14:20:31;179.70;2252.80
55008;DHT22;40902;45.116;21.296;2023-02-28T14:23:35;179.70;2252.80
55008;DHT22;40902;45.116;21.296;2023-02-28T14:36:53;179.80;2252.80
55008;DHT22;40902;45.116;21.296;2023-02-28T14:39:25;179.70;2252.80
55008;DHT22;40902;45.116;21.296;2023-02-28T14:41:51;179.80;2252.80
55008;DHT22;40902;45.116;21.296;2023-02-28T14:44:25;179.80;2252.80
55008;DHT22;40902;45.116;21.296;2023-02-28T14:46:55;179.90;2252.80
55008;DHT22;40902;45.116;21.296;2023-02-28T14:49:34;180.00;2252.80
55008;DHT22;40902;45.116;21.296;2023-02-28T14:54:37;180.00;2252.80
55008;DHT22;40902;45.116;21.296;2023-02-28T14:57:03;180.00;2252.80
55008;DHT22;40902;45.116;21.296;2023-02-28T14:59:32;180.00;2252.80
55008;DHT22;40902;45.116;21.296;2023-02-28T15:02:20;180.00;2252.80
55008;DHT22;40902;45.116;21.296;2023-02-28T15:05:01;180.00;2252.80
55008;DHT22;40902;45.116;21.296;2023-02-28T15:07:35;180.00;2252.80
55008;DHT22;40902;45.116;21.296;2023-02-28T15:15:16;180.10;2252.80
55008;DHT22;40902;45.116;21.296;2023-02-28T15:17:45;180.00;2252.80
55008;DHT22;40902;45.116;21.296;2023-02-28T15:20:12;180.10;2252.80
55008;DHT22;40902;45.116;21.296;2023-02-28T15:22:39;180.10;2252.80
55008;DHT22;40902;45.116;21.296;2023-02-28T15:25:05;180.10;2252.80
55008;DHT22;40902;45.116;21.296;2023-02-28T15:27:33;180.10;2252.80
55008;DHT22;40902;45.116;21.296;2023-02-28T15:30:08;204.80;2252.80
55008;DHT22;40902;45.116;21.296;2023-02-28T15:32:39;204.80;2252.80
55008;DHT22;40902;45.116;21.296;2023-02-28T15:35:28;204.80;2252.80
55008;DHT22;40902;45.116;21.296;2023-02-28T15:40:38;204.90;2252.80
55008;DHT22;40902;45.116;21.296;2023-02-28T15:43:16;204.80;2252.80
55008;DHT22;40902;45.116;21.296;2023-02-28T15:45:50;204.80;2252.80
55008;DHT22;40902;45.116;21.296;2023-02-28T15:48:29;204.80;2252.80
55008;DHT22;40902;45.116;21.296;2023-02-28T15:51:00;204.80;2252.80
55008;DHT22;40902;45.116;21.296;2023-02-28T15:53:32;204.80;2252.80
55008;DHT22;40902;45.116;21.296;2023-02-28T15:56:04;204.80;2252.80
55008;DHT22;40902;45.116;21.296;2023-02-28T15:58:32;204.80;2252.80
55008;DHT22;40902;45.116;21.296;2023-02-28T16:01:07;204.80;2252.80
55008;DHT22;40902;45.116;21.296;2023-02-28T16:03:43;204.80;2252.80
55008;DHT22;40902;45.116;21.296;2023-02-28T16:06:28;204.80;2252.80
55008;DHT22;40902;45.116;21.296;2023-02-28T16:08:56;204.80;2252.80
55008;DHT22;40902;45.116;21.296;2023-02-28T16:11:22;204.80;2252.80
55008;DHT22;40902;45.116;21.296;2023-02-28T16:13:48;204.80;2252.80
55008;DHT22;40902;45.116;21.296;2023-02-28T16:16:18;204.80;2252.80
55008;DHT22;40902;45.116;21.296;2023-02-28T16:18:44;180.10;2252.80
55008;DHT22;40902;45.116;21.296;2023-02-28T16:21:10;204.80;2252.80
55008;DHT22;40902;45.116;21.296;2023-02-28T16:23:36;180.10;2252.80
55008;DHT22;40902;45.116;21.296;2023-02-28T16:26:03;204.80;2252.80
55008;DHT22;40902;45.116;21.296;2023-02-28T16:28:31;180.10;2252.80
55008;DHT22;40902;45.116;21.296;2023-02-28T16:31:04;204.80;2252.80
55008;DHT22;40902;45.116;21.296;2023-02-28T16:33:31;204.80;2252.80
55008;DHT22;40902;45.116;21.296;2023-02-28T16:35:57;204.80;2252.80
55008;DHT22;40902;45.116;21.296;2023-02-28T16:38:23;204.80;2252.80
55008;DHT22;40902;45.116;21.296;2023-02-28T16:40:50;204.80;2252.80
55008;DHT22;40902;45.116;21.296;2023-02-28T16:43:23;204.80;2252.80
55008;DHT22;40902;45.116;21.296;2023-02-28T16:45:54;180.10;2252.80
55008;DHT22;40902;45.116;21.296;2023-02-28T16:48:20;180.10;2252.80
55008;DHT22;40902;45.116;21.296;2023-02-28T16:50:46;204.80;2252.80
55008;DHT22;40902;45.116;21.296;2023-02-28T16:53:12;204.90;2252.80
55008;DHT22;40902;45.116;21.296;2023-02-28T16:55:39;204.80;2252.80
55008;DHT22;40902;45.116;21.296;2023-02-28T16:58:05;180.10;2252.80
55008;DHT22;40902;45.116;21.296;2023-02-28T17:00:32;180.10;2252.80
55008;DHT22;40902;45.116;21.296;2023-02-28T17:02:58;180.10;2252.80
55008;DHT22;40902;45.116;21.296;2023-02-28T17:05:34;180.10;2252.80
55008;DHT22;40902;45.116;21.296;2023-02-28T17:08:02;180.00;2252.80
55008;DHT22;40902;45.116;21.296;2023-02-28T17:10:29;180.10;2252.80
55008;DHT22;40902;45.116;21.296;2023-02-28T17:12:54;180.10;2252.80
55008;DHT22;40902;45.116;21.296;2023-02-28T17:15:20;204.80;2252.80
55008;DHT22;40902;45.116;21.296;2023-02-28T17:17:47;204.80;2252.80
55008;DHT22;40902;45.116;21.296;2023-02-28T17:20:22;180.10;2252.80